Time;durP1;ratioP1;P1;durP2;ratioP2;P2;SDS_P1;SDS_P2;PMS_P1;PMS_P2;Temp;Humidity;BMP_temperature;BMP_pressure;BME280_temperature;BME280_humidity;BME280_pressure;Samples;Min_cycle;Max_cycle;Signal;HPM_P1;HPM_P2
2022/06/16 00:01:59;;;;;;;5.75;3.40;;;20.60;48.00;;;;;;5050914;28;20527;-72
2022/06/16 00:04:27;;;;;;;3.50;2.60;;;20.50;48.00;;;;;;5046360;28;20638;-73
2022/06/16 00:06:55;;;;;;;4.75;3.08;;;20.50;49.30;;;;;;5035595;28;20505;-73
2022/06/16 00:09:22;;;;;;;3.60;2.90;;;20.40;48.30;;;;;;5042931;28;20474;-73
2022/06/16 00:11:50;;;;;;;3.58;3.20;;;20.30;48.60;;;;;;5048151;28;20786;-74
2022/06/16 00:14:17;;;;;;;3.60;3.00;;;20.30;49.30;;;;;;5031611;28;20532;-73
2022/06/16 00:16:46;;;;;;;4.00;3.03;;;20.30;49.00;;;;;;5040481;28;20437;-74
2022/06/16 00:19:13;;;;;;;4.33;3.00;;;20.20;51.10;;;;;;5038014;28;20843;-73
2022/06/16 00:21:40;;;;;;;3.85;2.90;;;20.20;49.50;;;;;;5040892;28;20962;-74
2022/06/16 00:24:08;;;;;;;4.82;3.00;;;20.10;49.60;;;;;;5039837;28;20530;-74
2022/06/16 00:26:35;;;;;;;3.78;3.10;;;20.10;51.30;;;;;;5034318;28;20509;-73
2022/06/16 00:29:02;;;;;;;4.50;3.20;;;20.10;50.20;;;;;;5052202;28;20522;-73
2022/06/16 00:31:29;;;;;;;3.38;2.92;;;20.00;50.10;;;;;;5049299;28;20433;-74
2022/06/16 00:33:57;;;;;;;4.10;3.20;;;20.00;50.60;;;;;;5040093;28;20512;-74
2022/06/16 00:36:24;;;;;;;5.13;3.60;;;20.00;50.50;;;;;;5037940;28;20448;-73
2022/06/16 00:38:51;;;;;;;3.70;3.00;;;20.00;52.30;;;;;;5040509;28;20433;-73
2022/06/16 00:41:18;;;;;;;5.00;3.35;;;19.90;50.90;;;;;;5032499;28;20524;-74
2022/06/16 00:43:45;;;;;;;5.80;3.30;;;19.90;50.80;;;;;;5039723;28;20524;-74
2022/06/16 00:46:16;;;;;;;3.80;2.92;;;19.90;52.50;;;;;;5033474;28;20536;-74
2022/06/16 00:48:48;;;;;;;4.03;3.03;;;20.00;53.10;;;;;;5037012;28;20609;-74
2022/06/16 00:51:24;;;;;;;3.97;3.45;;;19.90;52.60;;;;;;5037337;28;20503;-74
2022/06/16 00:53:54;;;;;;;4.13;3.10;;;19.90;53.00;;;;;;5040470;28;20471;-74
2022/06/16 00:56:22;;;;;;;3.70;3.10;;;19.90;53.30;;;;;;5049782;28;20456;-74
2022/06/16 00:58:54;;;;;;;4.32;3.30;;;19.80;52.40;;;;;;5044106;28;20628;-73
2022/06/16 01:01:22;;;;;;;4.47;3.33;;;19.80;53.20;;;;;;5040951;28;20459;-72
2022/06/16 01:06:35;;;;;;;3.75;3.10;;;19.80;53.50;;;;;;5033674;28;20422;-73
2022/06/16 01:09:06;;;;;;;3.97;3.20;;;19.70;53.90;;;;;;5057530;28;20456;-73
2022/06/16 01:14:50;;;;;;;6.32;3.88;;;19.60;54.60;;;;;;5034434;28;20416;-73
2022/06/16 01:17:24;;;;;;;4.07;3.50;;;19.50;54.90;;;;;;5042130;28;20434;-73
2022/06/16 01:20:04;;;;;;;4.15;3.80;;;19.50;55.60;;;;;;5045633;28;20430;-73
2022/06/16 01:22:48;;;;;;;4.50;3.72;;;19.50;54.80;;;;;;5039687;28;20515;-73
2022/06/16 01:25:27;;;;;;;4.90;3.60;;;19.40;55.30;;;;;;5026362;28;20468;-73
2022/06/16 01:28:20;;;;;;;3.88;3.30;;;19.40;55.60;;;;;;5050442;28;20459;-73
2022/06/16 01:30:56;;;;;;;3.93;3.57;;;19.40;55.20;;;;;;5041627;28;20548;-74
2022/06/16 01:33:28;;;;;;;4.15;3.70;;;19.40;56.20;;;;;;5039883;28;20534;-74
2022/06/16 01:36:00;;;;;;;3.97;3.38;;;19.30;56.00;;;;;;5040115;28;20612;-74
2022/06/16 01:38:33;;;;;;;3.70;3.10;;;19.40;58.30;;;;;;5049547;28;20511;-73
2022/06/16 01:41:09;;;;;;;4.75;3.40;;;19.40;56.10;;;;;;5046877;28;20428;-73
2022/06/16 01:43:39;;;;;;;4.00;3.60;;;19.40;57.00;;;;;;5039355;28;20451;-73
2022/06/16 01:46:12;;;;;;;4.82;3.78;;;19.30;56.20;;;;;;5038417;28;21236;-74
2022/06/16 01:48:43;;;;;;;5.03;3.50;;;19.20;55.30;;;;;;5048631;28;20465;-74
2022/06/16 01:51:14;;;;;;;4.60;3.17;;;19.20;56.60;;;;;;5035876;28;20439;-74
2022/06/16 01:53:46;;;;;;;4.90;3.47;;;19.20;56.90;;;;;;5038634;28;20436;-74
2022/06/16 01:56:19;;;;;;;5.50;3.30;;;19.20;57.10;;;;;;5032736;28;20452;-74
2022/06/16 01:58:50;;;;;;;4.57;3.13;;;19.20;57.00;;;;;;5045090;28;20437;-74
2022/06/16 02:01:21;;;;;;;5.00;3.53;;;19.10;57.20;;;;;;5046682;28;21063;-74
2022/06/16 02:03:54;;;;;;;4.38;3.70;;;19.10;57.50;;;;;;5050134;28;20458;-74
2022/06/16 02:06:24;;;;;;;4.72;3.50;;;19.00;57.00;;;;;;5041193;28;20436;-73
2022/06/16 02:08:56;;;;;;;4.20;3.30;;;19.00;57.00;;;;;;5048717;28;21000;-73
2022/06/16 02:11:27;;;;;;;5.40;3.35;;;19.00;57.50;;;;;;5059693;28;20531;-72
2022/06/16 02:14:00;;;;;;;4.00;3.60;;;19.00;57.50;;;;;;5040630;28;20431;-75
2022/06/16 02:16:31;;;;;;;4.57;4.03;;;18.90;57.20;;;;;;5043192;28;20470;-73
2022/06/16 02:19:00;;;;;;;4.72;3.90;;;18.90;57.20;;;;;;5038403;28;20413;-73
2022/06/16 02:21:33;;;;;;;4.57;3.20;;;18.80;57.20;;;;;;5043656;28;20547;-71
2022/06/16 02:24:01;;;;;;;5.43;3.60;;;18.80;57.80;;;;;;5046533;28;20787;-72
2022/06/16 02:26:28;;;;;;;4.00;3.60;;;18.70;58.00;;;;;;5047602;28;20537;-75
2022/06/16 02:28:58;;;;;;;4.03;3.28;;;18.70;57.80;;;;;;5050158;28;20520;-74
2022/06/16 02:31:42;;;;;;;4.13;3.55;;;18.60;58.60;;;;;;5051862;28;20499;-74
2022/06/16 02:34:22;;;;;;;3.97;3.42;;;18.60;58.10;;;;;;5031478;28;20437;-60
2022/06/16 02:37:23;;;;;;;4.82;3.33;;;18.70;57.30;;;;;;5039844;28;20489;-62
2022/06/16 02:40:04;;;;;;;3.70;3.40;;;18.60;58.20;;;;;;5006143;28;20914;-59
2022/06/16 02:42:36;;;;;;;3.45;3.15;;;18.80;55.80;;;;;;5046352;28;20870;-59
2022/06/16 02:45:12;;;;;;;5.23;3.40;;;18.90;55.30;;;;;;5039960;28;20516;-65
2022/06/16 02:47:56;;;;;;;3.67;3.10;;;19.00;55.90;;;;;;5046619;28;20556;-62
2022/06/16 02:50:33;;;;;;;4.70;3.20;;;18.90;55.20;;;;;;5038612;28;20419;-61
2022/06/16 02:53:07;;;;;;;4.40;3.60;;;19.00;55.10;;;;;;5044179;28;20437;-62
2022/06/16 02:55:39;;;;;;;4.63;3.50;;;19.00;56.40;;;;;;5039789;28;20429;-61
2022/06/16 02:58:09;;;;;;;4.40;4.00;;;19.10;55.20;;;;;;5051257;28;20427;-58
2022/06/16 03:00:40;;;;;;;5.28;3.78;;;19.20;55.10;;;;;;5046350;28;20439;-62
2022/06/16 03:03:19;;;;;;;4.07;3.60;;;19.10;55.10;;;;;;5043678;28;20912;-59
2022/06/16 03:05:49;;;;;;;5.40;3.92;;;19.20;55.20;;;;;;5047996;28;20502;-59
2022/06/16 03:08:16;;;;;;;5.10;3.57;;;19.20;55.20;;;;;;5048346;28;20492;-61
2022/06/16 03:10:52;;;;;;;5.30;4.07;;;19.00;56.30;;;;;;5059059;28;20451;-62
2022/06/16 03:13:20;;;;;;;4.40;3.72;;;18.80;58.30;;;;;;5056269;28;20482;-60
2022/06/16 03:15:48;;;;;;;4.30;3.78;;;18.60;58.00;;;;;;5039606;28;21176;-61
2022/06/16 03:18:15;;;;;;;5.55;3.78;;;18.60;57.60;;;;;;5049106;28;20437;-61
2022/06/16 03:20:43;;;;;;;6.40;3.97;;;18.50;59.00;;;;;;5044428;28;20441;-62
2022/06/16 03:23:10;;;;;;;5.07;3.90;;;18.40;58.80;;;;;;5041721;28;20957;-61
2022/06/16 03:25:37;;;;;;;4.03;3.63;;;18.40;59.50;;;;;;5037956;28;20439;-62
2022/06/16 03:28:05;;;;;;;6.22;4.10;;;18.30;58.10;;;;;;5041895;28;20439;-61
2022/06/16 03:30:33;;;;;;;4.30;3.67;;;18.30;58.20;;;;;;5045738;28;20567;-61
2022/06/16 03:33:00;;;;;;;4.50;3.80;;;18.40;59.10;;;;;;5041599;28;20905;-61
2022/06/16 03:35:27;;;;;;;4.03;3.45;;;18.30;58.80;;;;;;5037451;28;20441;-61
2022/06/16 03:37:55;;;;;;;4.57;3.90;;;18.40;58.10;;;;;;5055723;28;20491;-61
2022/06/16 03:40:22;;;;;;;4.15;3.75;;;18.40;59.50;;;;;;5039615;28;20429;-62
2022/06/16 03:42:50;;;;;;;4.20;3.90;;;18.30;58.40;;;;;;5039887;28;20937;-59
2022/06/16 03:45:18;;;;;;;5.72;4.10;;;18.30;58.40;;;;;;5044052;28;20433;-60
2022/06/16 03:47:44;;;;;;;6.57;4.00;;;18.20;59.70;;;;;;5037167;28;20506;-62
2022/06/16 03:50:15;;;;;;;4.53;3.70;;;18.10;59.40;;;;;;5041010;28;20417;-60
2022/06/16 03:52:42;;;;;;;5.65;3.67;;;18.00;60.20;;;;;;5039856;28;20433;-59
2022/06/16 03:55:11;;;;;;;5.83;3.53;;;18.00;59.20;;;;;;5048012;28;20432;-62
2022/06/16 03:57:38;;;;;;;4.57;3.75;;;18.00;59.10;;;;;;5045108;28;20516;-60
2022/06/16 04:00:07;;;;;;;4.20;3.63;;;18.00;58.60;;;;;;5028775;28;20441;-59
2022/06/16 04:02:34;;;;;;;4.60;4.20;;;18.10;58.40;;;;;;5026357;28;20925;-61
2022/06/16 04:05:01;;;;;;;4.43;3.90;;;18.20;58.10;;;;;;5044660;28;20544;-61
2022/06/16 04:07:29;;;;;;;3.50;3.20;;;18.10;58.50;;;;;;5038541;28;20548;-61
2022/06/16 04:09:55;;;;;;;5.32;3.45;;;18.10;59.00;;;;;;5033438;28;20830;-61
2022/06/16 04:12:24;;;;;;;3.70;3.40;;;18.00;58.40;;;;;;5039018;28;20438;-61
2022/06/16 04:14:50;;;;;;;4.50;3.90;;;18.00;58.50;;;;;;5032837;28;21776;-61
2022/06/16 04:17:17;;;;;;;4.07;3.67;;;17.90;58.90;;;;;;5041674;28;20487;-62
2022/06/16 04:22:16;;;;;;;5.20;3.60;;;17.90;58.10;;;;;;5066402;22;20437;-64
2022/06/16 04:24:43;;;;;;;4.60;3.90;;;18.00;58.40;;;;;;5047120;28;20954;-63
2022/06/16 04:27:10;;;;;;;4.45;3.85;;;18.00;58.00;;;;;;5040682;28;20433;-64
2022/06/16 04:29:38;;;;;;;4.30;3.42;;;18.00;57.90;;;;;;5044291;28;20794;-64
2022/06/16 04:32:05;;;;;;;4.03;3.60;;;18.00;57.90;;;;;;5046494;28;20432;-64
2022/06/16 04:34:32;;;;;;;3.85;3.45;;;18.00;58.10;;;;;;5059041;28;20430;-64
2022/06/16 04:36:59;;;;;;;4.30;3.70;;;18.00;58.10;;;;;;5037722;28;20423;-63
2022/06/16 04:39:26;;;;;;;4.78;4.00;;;18.00;58.20;;;;;;5042476;28;20472;-64
2022/06/16 04:41:52;;;;;;;4.30;3.40;;;18.00;57.90;;;;;;5053066;28;20427;-65
2022/06/16 04:44:19;;;;;;;6.63;3.65;;;18.10;57.70;;;;;;5045850;28;20437;-65
2022/06/16 04:46:47;;;;;;;4.78;3.80;;;18.00;57.40;;;;;;5040542;28;20525;-63
2022/06/16 04:49:14;;;;;;;3.20;3.00;;;18.00;57.50;;;;;;5051093;28;20425;-64
2022/06/16 04:51:41;;;;;;;4.50;3.70;;;18.00;57.90;;;;;;5034396;28;20439;-64
2022/06/16 04:54:08;;;;;;;6.07;3.63;;;17.90;58.10;;;;;;5051782;28;21113;-65
2022/06/16 04:56:35;;;;;;;4.53;3.70;;;17.70;58.40;;;;;;5041933;28;20425;-66
2022/06/16 04:59:01;;;;;;;4.90;3.60;;;17.80;58.40;;;;;;5044327;28;20441;-63
2022/06/16 05:01:28;;;;;;;3.97;3.47;;;17.80;58.10;;;;;;5040463;28;20440;-64
2022/06/16 05:03:56;;;;;;;4.90;3.85;;;17.90;57.60;;;;;;5052857;28;20534;-64
2022/06/16 05:06:23;;;;;;;4.27;3.40;;;17.90;57.40;;;;;;5040923;28;20464;-63
2022/06/16 05:08:50;;;;;;;4.20;3.73;;;17.90;57.10;;;;;;5048403;28;20496;-64
2022/06/16 05:11:17;;;;;;;4.13;3.73;;;17.90;57.30;;;;;;5045143;28;20608;-63
2022/06/16 05:13:43;;;;;;;4.10;3.53;;;17.80;58.40;;;;;;5048878;28;20518;-65
2022/06/16 05:16:10;;;;;;;5.05;3.80;;;17.80;57.60;;;;;;5037918;28;20429;-64
2022/06/16 05:18:37;;;;;;;4.30;3.90;;;17.90;57.30;;;;;;5034625;28;20425;-64
2022/06/16 05:21:07;;;;;;;4.10;3.80;;;17.90;57.10;;;;;;5035613;28;20440;-65
2022/06/16 05:23:34;;;;;;;4.32;3.30;;;18.00;55.90;;;;;;5057684;28;20410;-65
2022/06/16 05:26:02;;;;;;;4.65;3.90;;;18.00;56.10;;;;;;5059518;28;20456;-63
2022/06/16 05:28:30;;;;;;;4.75;3.67;;;18.00;55.60;;;;;;5060172;28;20478;-64
2022/06/16 05:30:57;;;;;;;4.10;3.70;;;18.10;56.50;;;;;;5039576;28;20442;-63
2022/06/16 05:33:24;;;;;;;3.55;3.25;;;18.00;56.50;;;;;;5053177;28;20921;-65
2022/06/16 05:35:56;;;;;;;4.32;3.92;;;18.00;56.60;;;;;;5045346;28;20437;-64
2022/06/16 05:38:24;;;;;;;5.30;3.70;;;17.90;56.20;;;;;;5039609;28;20993;-64
2022/06/16 05:40:56;;;;;;;4.25;3.38;;;18.10;55.30;;;;;;5030691;28;20521;-66
2022/06/16 05:43:23;;;;;;;3.88;3.40;;;18.10;55.30;;;;;;5034921;28;20433;-65
2022/06/16 05:45:51;;;;;;;4.22;3.50;;;18.10;55.30;;;;;;5029132;28;20922;-63
2022/06/16 05:48:18;;;;;;;4.80;3.73;;;18.10;56.10;;;;;;5044912;28;20517;-62
2022/06/16 05:50:45;;;;;;;4.15;3.70;;;18.00;56.40;;;;;;5040794;28;20429;-66
2022/06/16 05:53:12;;;;;;;4.50;3.90;;;18.00;56.20;;;;;;5042243;28;20437;-66
2022/06/16 05:55:41;;;;;;;3.50;3.20;;;17.90;56.80;;;;;;5032816;28;20438;-65
2022/06/16 05:58:08;;;;;;;4.07;3.67;;;17.80;56.40;;;;;;5052204;28;20429;-67
2022/06/16 06:00:34;;;;;;;6.13;3.50;;;17.80;56.20;;;;;;5036467;28;20432;-67
2022/06/16 06:03:01;;;;;;;3.60;3.30;;;17.70;56.60;;;;;;5044216;28;21220;-67
2022/06/16 06:05:29;;;;;;;4.88;3.53;;;17.70;57.40;;;;;;5043722;28;20440;-67
2022/06/16 06:16:35;;;;;;;3.95;3.17;;;18.00;57.40;;;;;;5046150;28;20463;-66
2022/06/16 06:19:23;;;;;;;5.00;3.90;;;18.00;56.00;;;;;;5043549;28;20510;-66
2022/06/16 06:22:00;;;;;;;4.60;3.67;;;18.10;56.10;;;;;;5049633;28;20431;-64
2022/06/16 06:24:28;;;;;;;4.63;3.70;;;18.20;54.60;;;;;;5042464;28;22878;-65
2022/06/16 06:26:59;;;;;;;4.93;3.47;;;18.30;56.30;;;;;;5050042;28;20962;-65
2022/06/16 06:29:26;;;;;;;5.53;3.40;;;18.30;54.90;;;;;;5043051;28;20440;-64
2022/06/16 06:31:53;;;;;;;5.17;3.00;;;18.40;53.90;;;;;;5049497;28;20951;-66
2022/06/16 06:34:20;;;;;;;5.40;3.70;;;18.40;54.70;;;;;;5048165;28;20437;-66
2022/06/16 06:36:48;;;;;;;5.45;3.45;;;18.50;54.10;;;;;;5043364;28;20429;-66
2022/06/16 06:39:14;;;;;;;4.43;3.40;;;18.70;53.70;;;;;;5041091;28;20494;-64
2022/06/16 06:41:42;;;;;;;4.88;3.30;;;18.90;53.40;;;;;;5041666;28;20420;-65
2022/06/16 06:44:10;;;;;;;4.55;2.88;;;19.10;52.30;;;;;;5042578;28;20902;-65
2022/06/16 06:46:37;;;;;;;4.13;3.30;;;19.30;51.60;;;;;;5036735;28;20429;-66
2022/06/16 06:49:04;;;;;;;3.42;3.13;;;19.50;51.40;;;;;;5041309;28;20912;-65
2022/06/16 06:51:32;;;;;;;3.50;3.00;;;19.40;51.00;;;;;;5042010;28;20910;-65
2022/06/16 06:53:59;;;;;;;3.90;3.25;;;19.50;50.80;;;;;;5044917;28;20522;-63
2022/06/16 06:56:26;;;;;;;4.15;3.25;;;19.70;50.30;;;;;;5049642;28;20502;-65
2022/06/16 06:58:54;;;;;;;7.20;3.60;;;19.70;49.80;;;;;;5043986;28;20992;-66
2022/06/16 07:01:22;;;;;;;5.20;3.60;;;19.80;50.90;;;;;;5041582;28;20444;-63
2022/06/16 07:03:50;;;;;;;3.10;2.80;;;20.00;49.50;;;;;;5047820;28;20907;-67
2022/06/16 07:06:19;;;;;;;3.30;2.80;;;20.00;49.50;;;;;;5042072;28;20429;-66
2022/06/16 07:08:46;;;;;;;4.38;2.90;;;20.10;49.30;;;;;;5044357;28;20437;-68
2022/06/16 07:11:14;;;;;;;2.78;2.50;;;20.30;48.40;;;;;;5058111;28;20441;-66
2022/06/16 07:13:41;;;;;;;3.63;2.83;;;20.40;48.20;;;;;;5052723;28;20429;-66
2022/06/16 07:16:10;;;;;;;3.10;2.80;;;20.50;48.10;;;;;;5052237;28;20452;-66
2022/06/16 07:18:38;;;;;;;4.55;3.20;;;20.60;47.30;;;;;;5031115;28;21204;-65
2022/06/16 07:21:06;;;;;;;4.30;3.00;;;20.80;47.30;;;;;;5050066;28;20433;-67
2022/06/16 07:23:33;;;;;;;7.25;3.88;;;20.90;47.60;;;;;;5053588;28;20433;-65
2022/06/16 07:26:00;;;;;;;4.82;3.50;;;21.10;47.80;;;;;;5036212;28;20504;-67
2022/06/16 07:28:27;;;;;;;4.00;3.60;;;21.20;46.50;;;;;;5037798;28;20498;-68
2022/06/16 07:30:54;;;;;;;4.80;3.72;;;21.20;45.50;;;;;;5037898;28;20488;-68
2022/06/16 07:33:23;;;;;;;4.10;3.30;;;21.30;46.80;;;;;;5051524;28;20432;-68
2022/06/16 07:35:52;;;;;;;3.40;3.10;;;21.40;45.60;;;;;;5073727;28;20433;-72
2022/06/16 07:38:19;;;;;;;5.20;3.00;;;21.50;45.30;;;;;;5068900;28;20429;-68
2022/06/16 07:40:46;;;;;;;4.50;3.00;;;21.60;45.00;;;;;;5061310;28;20455;-65
2022/06/16 07:43:13;;;;;;;3.30;2.83;;;21.70;45.10;;;;;;5035088;28;20558;-66
2022/06/16 07:45:40;;;;;;;3.58;2.25;;;21.80;45.20;;;;;;5055992;28;20723;-64
2022/06/16 07:48:08;;;;;;;2.90;2.58;;;21.90;45.30;;;;;;5047362;28;20509;-66
2022/06/16 07:50:36;;;;;;;2.63;2.42;;;22.10;44.60;;;;;;5035779;28;20438;-66
2022/06/16 07:53:05;;;;;;;4.00;3.28;;;22.20;43.50;;;;;;5039515;28;20512;-63
2022/06/16 07:55:33;;;;;;;3.83;2.65;;;22.10;42.70;;;;;;5039185;28;20433;-66
2022/06/16 07:58:00;;;;;;;4.57;3.00;;;22.10;43.90;;;;;;5047779;28;20431;-65
2022/06/16 08:00:31;;;;;;;4.00;2.70;;;22.20;43.60;;;;;;5041960;28;20447;-67
2022/06/16 08:02:58;;;;;;;3.85;2.90;;;22.30;43.00;;;;;;5055379;28;20458;-65
2022/06/16 08:05:25;;;;;;;4.18;2.70;;;22.50;42.80;;;;;;5044319;28;20437;-67
2022/06/16 08:07:52;;;;;;;4.07;2.78;;;22.50;42.50;;;;;;5037166;28;20474;-64
2022/06/16 08:10:24;;;;;;;2.60;2.40;;;22.40;42.70;;;;;;5040059;28;20976;-66
2022/06/16 08:12:51;;;;;;;3.05;2.35;;;22.50;42.90;;;;;;5036660;28;20430;-67
2022/06/16 08:15:18;;;;;;;4.30;2.80;;;22.70;42.60;;;;;;5045997;28;20439;-68
2022/06/16 08:17:48;;;;;;;6.10;3.17;;;22.90;42.00;;;;;;5037897;28;20911;-70
2022/06/16 08:20:15;;;;;;;6.90;2.80;;;23.00;42.00;;;;;;5036244;28;20516;-71
2022/06/16 08:22:43;;;;;;;4.00;2.93;;;23.30;41.60;;;;;;5033715;28;20490;-70
2022/06/16 08:25:12;;;;;;;5.65;2.90;;;23.50;41.40;;;;;;5038231;28;20419;-71
2022/06/16 08:27:43;;;;;;;4.28;2.50;;;23.80;40.20;;;;;;5064156;28;20419;-70
2022/06/16 08:30:13;;;;;;;4.97;2.40;;;23.90;39.90;;;;;;5068962;28;20420;-70
2022/06/16 08:32:40;;;;;;;4.97;2.40;;;24.00;39.70;;;;;;5055901;28;20442;-70
2022/06/16 08:35:08;;;;;;;5.60;2.80;;;24.00;39.10;;;;;;5041071;28;20424;-70
2022/06/16 08:37:36;;;;;;;4.95;2.70;;;24.10;39.00;;;;;;5040362;28;20435;-71
2022/06/16 08:40:04;;;;;;;4.93;2.67;;;24.10;38.50;;;;;;5049691;28;20405;-70
2022/06/16 08:42:41;;;;;;;5.05;2.85;;;24.20;38.40;;;;;;5029326;28;20889;-68
2022/06/16 08:45:19;;;;;;;5.85;2.80;;;24.30;37.80;;;;;;5036539;28;20438;-69
2022/06/16 08:47:52;;;;;;;4.53;2.60;;;24.30;37.60;;;;;;5055358;28;20431;-70
2022/06/16 08:50:26;;;;;;;4.82;2.58;;;24.30;38.10;;;;;;5055086;28;20486;-71
2022/06/16 08:53:10;;;;;;;3.80;2.50;;;24.30;38.00;;;;;;5049799;28;21022;-70
2022/06/16 08:55:46;;;;;;;2.60;2.10;;;24.40;38.00;;;;;;5070231;28;20478;-70
2022/06/16 08:58:24;;;;;;;3.80;2.40;;;24.40;37.30;;;;;;5091159;28;20423;-70
2022/06/16 09:00:55;;;;;;;3.00;2.40;;;24.60;37.10;;;;;;5071088;28;20395;-71
2022/06/16 09:03:28;;;;;;;3.10;2.17;;;24.70;36.50;;;;;;5079658;28;20411;-69
2022/06/16 09:06:00;;;;;;;3.10;2.25;;;24.70;36.20;;;;;;5061701;28;20491;-71
2022/06/16 09:08:51;;;;;;;3.97;2.30;;;24.80;35.70;;;;;;5060807;28;20429;-72
2022/06/16 09:11:26;;;;;;;3.38;2.38;;;24.90;35.80;;;;;;5064178;28;20459;-72
2022/06/16 09:14:09;;;;;;;4.25;2.30;;;25.00;35.90;;;;;;5072296;28;20394;-71
2022/06/16 09:16:47;;;;;;;3.80;2.10;;;25.10;35.20;;;;;;5061617;28;20882;-71
2022/06/16 09:19:40;;;;;;;2.42;2.20;;;25.20;34.70;;;;;;5053861;28;20549;-72
2022/06/16 09:22:23;;;;;;;2.30;2.10;;;25.20;34.80;;;;;;5041234;28;20905;-70
2022/06/16 09:25:08;;;;;;;3.38;2.13;;;25.30;33.40;;;;;;5037003;28;20430;-68
2022/06/16 09:27:40;;;;;;;2.53;1.98;;;25.40;34.10;;;;;;5054733;28;20445;-68
2022/06/16 09:30:12;;;;;;;2.60;2.20;;;25.40;34.20;;;;;;5041588;28;20410;-68
2022/06/16 09:32:44;;;;;;;2.60;1.80;;;25.50;35.00;;;;;;5056988;28;20434;-69
2022/06/16 09:35:16;;;;;;;2.53;2.10;;;25.50;34.10;;;;;;5039371;28;20437;-71
2022/06/16 09:37:47;;;;;;;2.28;1.85;;;25.60;34.00;;;;;;5036893;28;20430;-67
2022/06/16 09:40:21;;;;;;;3.40;2.10;;;25.70;33.40;;;;;;5069490;28;20423;-69
2022/06/16 09:42:54;;;;;;;3.00;2.10;;;25.70;33.80;;;;;;5079693;28;20479;-69
2022/06/16 09:45:27;;;;;;;2.22;1.80;;;25.80;32.40;;;;;;5055592;28;20415;-66
2022/06/16 09:48:03;;;;;;;1.83;1.50;;;25.80;34.60;;;;;;5044485;28;20425;-69
2022/06/16 09:50:37;;;;;;;2.90;1.85;;;25.90;33.10;;;;;;5065838;28;20484;-67
2022/06/16 09:53:12;;;;;;;3.90;2.05;;;25.80;33.00;;;;;;5055684;28;20437;-67
2022/06/16 09:55:42;;;;;;;4.97;2.15;;;25.90;32.10;;;;;;5060693;28;20869;-65
2022/06/16 09:58:15;;;;;;;3.22;2.03;;;25.90;31.50;;;;;;5040532;28;20434;-67
2022/06/16 10:00:44;;;;;;;2.65;2.05;;;25.90;31.60;;;;;;5049582;28;20433;-69
2022/06/16 10:03:21;;;;;;;2.70;1.80;;;26.00;31.80;;;;;;5049731;28;20805;-68
2022/06/16 10:05:59;;;;;;;2.10;1.60;;;26.00;31.70;;;;;;5051351;28;20428;-67
2022/06/16 10:08:35;;;;;;;3.13;2.10;;;26.10;31.90;;;;;;5039162;28;20876;-66
2022/06/16 10:11:09;;;;;;;3.88;3.00;;;26.20;31.30;;;;;;5050229;28;20441;-66
2022/06/16 10:13:42;;;;;;;3.00;2.70;;;26.20;30.50;;;;;;5032048;28;20419;-66
2022/06/16 10:16:13;;;;;;;2.40;1.90;;;26.30;28.90;;;;;;5045419;28;20414;-66
2022/06/16 10:18:40;;;;;;;3.13;2.10;;;26.50;30.20;;;;;;5044194;28;20456;-68
2022/06/16 10:21:08;;;;;;;1.80;1.70;;;26.60;31.30;;;;;;5044253;28;20422;-66
2022/06/16 10:23:40;;;;;;;2.42;1.50;;;26.70;29.50;;;;;;5065229;22;20529;-68
2022/06/16 10:26:09;;;;;;;2.00;1.40;;;26.90;28.90;;;;;;5048703;28;20420;-68
2022/06/16 10:28:44;;;;;;;2.08;1.70;;;27.10;30.80;;;;;;5062434;28;20430;-68
2022/06/16 10:31:18;;;;;;;1.77;1.67;;;27.10;29.80;;;;;;5059235;28;20434;-68
2022/06/16 10:33:55;;;;;;;2.60;1.50;;;27.20;27.90;;;;;;5050402;28;20433;-65
2022/06/16 10:36:26;;;;;;;3.08;1.30;;;27.20;28.80;;;;;;5040564;28;20429;-65
2022/06/16 10:39:07;;;;;;;2.40;1.73;;;27.20;29.80;;;;;;5040548;28;20489;-65
2022/06/16 10:41:37;;;;;;;2.40;1.60;;;27.20;28.80;;;;;;5030613;28;20435;-68
2022/06/16 10:44:06;;;;;;;1.60;1.50;;;27.30;28.80;;;;;;5039024;28;20515;-64
2022/06/16 10:46:37;;;;;;;2.45;1.45;;;27.40;28.00;;;;;;5042519;28;20452;-66
2022/06/16 10:49:07;;;;;;;3.28;1.73;;;27.60;29.90;;;;;;5031632;28;20444;-65
2022/06/16 10:51:47;;;;;;;1.88;1.30;;;27.60;29.50;;;;;;5036928;28;20440;-68
2022/06/16 10:54:15;;;;;;;1.80;1.30;;;27.60;28.80;;;;;;5040563;28;20780;-70
2022/06/16 10:56:42;;;;;;;2.58;1.20;;;27.60;27.40;;;;;;5044200;28;20478;-70
2022/06/16 10:59:26;;;;;;;1.30;1.20;;;27.70;28.20;;;;;;5041934;28;20421;-69
2022/06/16 11:02:01;;;;;;;2.90;1.17;;;27.80;27.10;;;;;;5046205;28;20444;-69
2022/06/16 11:04:36;;;;;;;1.80;1.30;;;27.90;27.10;;;;;;5046098;28;20421;-69
2022/06/16 11:07:04;;;;;;;1.48;1.30;;;28.00;27.60;;;;;;5045535;28;21205;-71
2022/06/16 11:09:33;;;;;;;1.60;1.13;;;28.20;27.10;;;;;;5045648;28;20539;-71
2022/06/16 11:12:02;;;;;;;1.92;1.00;;;28.50;27.40;;;;;;5044887;28;20448;-71
2022/06/16 11:14:34;;;;;;;1.43;0.90;;;28.70;27.20;;;;;;5046196;28;20437;-70
2022/06/16 11:17:08;;;;;;;1.50;1.10;;;28.90;27.30;;;;;;5046817;28;20477;-70
2022/06/16 11:19:38;;;;;;;3.05;1.10;;;28.90;27.10;;;;;;5045678;28;20490;-72
2022/06/16 11:22:16;;;;;;;2.08;1.10;;;28.70;26.80;;;;;;5041262;28;21602;-72
2022/06/16 11:24:54;;;;;;;1.30;1.10;;;28.70;26.80;;;;;;5039363;28;20513;-70
2022/06/16 11:27:21;;;;;;;1.88;1.30;;;28.80;26.90;;;;;;5034216;28;20753;-71
2022/06/16 11:29:48;;;;;;;1.77;1.00;;;28.90;26.90;;;;;;5045614;28;20425;-71
2022/06/16 11:32:24;;;;;;;1.30;1.10;;;28.90;26.80;;;;;;5043215;28;20417;-70
2022/06/16 11:34:51;;;;;;;2.10;1.33;;;28.90;27.60;;;;;;5045324;28;20469;-70
2022/06/16 11:37:41;;;;;;;1.50;1.23;;;29.00;25.70;;;;;;5044187;28;20807;-70
2022/06/16 11:40:25;;;;;;;2.60;1.30;;;29.10;26.30;;;;;;5045752;28;20494;-70
2022/06/16 11:43:18;;;;;;;1.40;1.10;;;29.20;26.40;;;;;;5048147;28;20474;-72
2022/06/16 11:45:50;;;;;;;1.60;1.10;;;29.10;27.00;;;;;;5045320;28;20922;-70
2022/06/16 11:48:24;;;;;;;2.30;1.20;;;29.10;27.10;;;;;;5048056;28;20444;-70
2022/06/16 11:50:58;;;;;;;2.60;1.00;;;29.20;26.80;;;;;;5038673;28;20437;-72
2022/06/16 11:53:37;;;;;;;2.40;0.90;;;29.20;26.50;;;;;;5045187;28;20429;-77
2022/06/16 11:56:11;;;;;;;2.90;1.30;;;29.40;26.20;;;;;;5042695;28;20755;-66
2022/06/16 11:59:08;;;;;;;2.05;1.20;;;29.60;25.20;;;;;;5035099;28;20429;-73
2022/06/16 12:01:42;;;;;;;2.20;1.10;;;29.60;26.90;;;;;;5036049;28;20448;-72
2022/06/16 12:04:36;;;;;;;1.60;0.90;;;29.60;25.10;;;;;;5042234;28;20872;-70
2022/06/16 12:07:31;;;;;;;2.60;1.10;;;29.60;25.20;;;;;;5041424;28;20438;-70
2022/06/16 12:10:05;;;;;;;1.50;0.90;;;29.70;25.80;;;;;;5042723;28;20524;-71
2022/06/16 12:12:38;;;;;;;1.40;0.95;;;29.90;25.20;;;;;;5045543;28;21179;-75
2022/06/16 12:15:16;;;;;;;1.38;0.98;;;30.00;25.00;;;;;;5038811;28;20486;-72
2022/06/16 12:17:49;;;;;;;1.55;1.00;;;30.00;24.90;;;;;;5031136;28;20552;-72
2022/06/16 12:20:23;;;;;;;2.00;1.10;;;30.10;24.50;;;;;;5041060;28;20432;-71
2022/06/16 12:22:59;;;;;;;1.60;1.20;;;30.10;24.20;;;;;;5043427;28;20433;-64
2022/06/16 12:25:33;;;;;;;3.65;2.00;;;30.10;26.10;;;;;;5038913;28;20437;-64
2022/06/16 12:28:05;;;;;;;2.30;1.75;;;30.00;27.60;;;;;;5037989;28;20406;-64
2022/06/16 12:30:39;;;;;;;3.50;1.80;;;29.90;27.30;;;;;;5042562;28;20547;-68
2022/06/16 12:33:12;;;;;;;2.10;1.75;;;29.80;28.60;;;;;;5041211;28;20434;-67
2022/06/16 12:35:46;;;;;;;2.30;1.60;;;29.70;28.60;;;;;;5038525;28;20436;-64
2022/06/16 12:38:19;;;;;;;2.92;1.90;;;29.60;27.30;;;;;;5038716;28;20438;-70
2022/06/16 12:40:51;;;;;;;2.00;1.30;;;29.40;26.60;;;;;;5038639;28;20508;-70
2022/06/16 12:43:24;;;;;;;2.25;0.90;;;29.40;26.10;;;;;;5035075;28;20485;-71
2022/06/16 12:45:59;;;;;;;2.40;1.10;;;29.50;25.00;;;;;;5040141;28;20433;-71
2022/06/16 12:48:30;;;;;;;1.30;1.13;;;29.60;25.50;;;;;;5028480;28;20431;-71
2022/06/16 12:51:02;;;;;;;1.48;1.10;;;29.90;25.30;;;;;;5047437;28;20438;-72
2022/06/16 12:53:35;;;;;;;1.37;0.90;;;30.20;24.70;;;;;;5034708;28;20413;-71
2022/06/16 12:56:08;;;;;;;1.40;0.90;;;30.40;24.60;;;;;;5041543;28;20459;-71
2022/06/16 12:58:42;;;;;;;0.80;0.70;;;30.30;24.40;;;;;;5038065;28;20728;-71
2022/06/16 13:01:11;;;;;;;2.40;0.90;;;30.30;24.60;;;;;;5050824;28;20433;-70
2022/06/16 13:03:47;;;;;;;1.30;0.82;;;30.20;24.00;;;;;;5039608;28;20444;-71
2022/06/16 13:06:18;;;;;;;1.90;1.00;;;30.10;23.30;;;;;;5038812;28;20464;-72
2022/06/16 13:08:50;;;;;;;1.35;0.93;;;30.10;24.80;;;;;;5043036;28;20417;-70
2022/06/16 13:11:19;;;;;;;3.10;1.17;;;30.10;24.70;;;;;;5038267;28;20427;-74
2022/06/16 13:13:53;;;;;;;1.88;0.80;;;30.20;24.70;;;;;;5032908;28;20536;-71
2022/06/16 13:16:25;;;;;;;1.27;1.17;;;30.40;23.90;;;;;;5035079;28;20560;-70
2022/06/16 13:18:57;;;;;;;1.27;1.00;;;30.40;23.90;;;;;;5033665;28;20795;-70
2022/06/16 13:21:32;;;;;;;1.50;0.90;;;30.40;24.70;;;;;;5040308;28;20433;-71
2022/06/16 13:24:10;;;;;;;1.23;0.80;;;30.40;24.60;;;;;;5036689;28;21189;-71
2022/06/16 13:26:41;;;;;;;1.25;0.95;;;30.40;23.50;;;;;;5037316;28;20425;-72